createdAt,value
2022-11-24T04:55:17.665Z,4.25
2022-11-24T04:58:20.009Z,7.22
2022-11-24T05:01:22.179Z,5.03
2022-11-24T05:04:24.741Z,5.62
2022-11-24T05:07:26.971Z,6.70
2022-11-24T05:10:35.204Z,8.27
2022-11-24T05:13:37.264Z,7.03
2022-11-24T05:16:39.652Z,7.25
2022-11-24T05:19:41.764Z,7.55
2022-11-24T05:22:44.600Z,6.22
2022-11-24T05:25:47.966Z,5.18
2022-11-24T05:28:50.467Z,3.78
2022-11-24T05:31:52.617Z,5.18
2022-11-24T05:34:55.191Z,4.00
2022-11-24T05:37:58.653Z,5.80
2022-11-24T05:41:05.443Z,6.68
2022-11-24T05:44:07.576Z,6.97
2022-11-24T05:47:09.933Z,5.50
2022-11-24T05:50:14.619Z,5.00
2022-11-24T05:53:16.925Z,7.22
2022-11-24T05:56:19.172Z,4.30
2022-11-24T05:59:21.852Z,4.60
2022-11-24T06:02:25.434Z,5.12
2022-11-24T06:05:29.227Z,5.47
2022-11-24T06:08:31.477Z,5.05
2022-11-24T06:11:34.024Z,3.08
2022-11-24T06:14:36.740Z,5.25
2022-11-24T06:17:39.688Z,4.22
2022-11-24T06:20:42.248Z,3.30
2022-11-24T06:23:49.082Z,4.87
2022-11-24T06:26:51.124Z,5.72
2022-11-24T06:29:53.477Z,3.70
2022-11-24T06:32:55.606Z,4.43
2022-11-24T06:36:03.445Z,4.47
2022-11-24T06:39:07.012Z,2.90
2022-11-24T06:42:09.345Z,3.35
2022-11-24T06:45:11.419Z,5.28
2022-11-24T06:48:13.751Z,5.07
2022-11-24T06:51:15.879Z,5.45
2022-11-24T06:54:21.046Z,5.40
2022-11-24T06:57:23.089Z,4.55
2022-11-24T07:00:25.504Z,3.37
2022-11-24T07:03:27.653Z,3.08
2022-11-24T07:06:30.004Z,4.90
2022-11-24T07:09:32.059Z,5.97
2022-11-24T07:12:35.304Z,5.65
2022-11-24T07:15:37.409Z,4.70
2022-11-24T07:18:39.752Z,4.37
2022-11-24T07:21:41.863Z,3.03
2022-11-24T07:24:44.186Z,5.82
2022-11-24T07:27:46.216Z,3.92
2022-11-24T07:30:48.561Z,5.28
2022-11-24T07:33:52.532Z,3.47
2022-11-24T07:36:54.865Z,4.85
2022-11-24T07:39:56.905Z,3.72
2022-11-24T07:43:01.467Z,3.78
2022-11-24T07:46:07.271Z,3.40
2022-11-24T07:49:13.015Z,5.20
2022-11-24T07:52:15.156Z,5.78
2022-11-24T07:55:17.527Z,2.78
2022-11-24T07:58:19.616Z,5.90
2022-11-24T08:01:22.047Z,5.32
2022-11-24T08:04:24.444Z,3.70
2022-11-24T08:07:26.583Z,4.82
2022-11-24T08:10:28.969Z,4.50
2022-11-24T08:13:31.305Z,2.90
2022-11-24T08:16:33.695Z,2.30
2022-11-24T08:19:36.097Z,4.10
2022-11-24T08:22:38.604Z,5.45
2022-11-24T08:25:40.620Z,3.45
2022-11-24T08:28:43.859Z,7.05
2022-11-24T08:31:45.923Z,4.95
2022-11-24T08:34:48.289Z,4.37
2022-11-24T08:37:50.369Z,4.30
2022-11-24T08:40:52.657Z,5.22
2022-11-24T08:43:55.372Z,4.00
2022-11-24T08:46:57.709Z,5.22
2022-11-24T08:49:59.813Z,5.50
2022-11-24T08:53:02.156Z,4.37
2022-11-24T08:56:05.682Z,3.85
2022-11-24T08:59:08.090Z,5.05
2022-11-24T09:02:12.217Z,5.25
2022-11-24T09:05:49.703Z,4.45
2022-11-24T09:08:37.725Z,5.10
2022-11-24T09:11:40.069Z,5.90
2022-11-24T09:14:42.106Z,6.30
2022-11-24T09:17:45.292Z,5.93
2022-11-24T09:20:47.321Z,5.37
2022-11-24T09:23:52.120Z,4.95
2022-11-24T09:26:55.439Z,4.97
2022-11-24T09:29:57.739Z,3.92
2022-11-24T09:32:59.796Z,3.42
2022-11-24T09:36:02.663Z,4.05
2022-11-24T09:39:05.175Z,3.22
2022-11-24T09:42:14.802Z,6.32
2022-11-24T09:46:05.147Z,3.45
2022-11-24T09:49:14.056Z,4.20
2022-11-24T09:52:35.638Z,4.25
2022-11-24T09:55:48.561Z,5.07
2022-11-24T09:59:05.194Z,5.43
2022-11-24T10:02:13.193Z,3.08
2022-11-24T10:05:15.657Z,2.95
2022-11-24T10:08:44.321Z,3.22
2022-11-24T10:11:58.753Z,4.30
2022-11-24T10:15:13.065Z,3.15
2022-11-24T10:19:00.341Z,3.05
2022-11-24T10:22:17.391Z,3.60
2022-11-24T10:25:29.561Z,3.28
2022-11-24T10:28:58.479Z,1.85
2022-11-24T10:32:10.812Z,3.40
2022-11-24T10:35:19.817Z,3.22
2022-11-24T10:38:35.008Z,2.62
2022-11-24T10:41:48.553Z,3.80
2022-11-24T10:45:13.672Z,2.83
2022-11-24T10:48:21.034Z,2.90
2022-11-24T10:52:01.390Z,2.67
2022-11-24T10:55:05.485Z,4.95
2022-11-24T10:58:15.773Z,4.43
2022-11-24T11:01:17.835Z,3.15
2022-11-24T11:04:27.689Z,1.98
2022-11-24T11:07:29.841Z,4.03
2022-11-24T11:10:32.241Z,2.97
2022-11-24T11:13:34.268Z,3.30
2022-11-24T11:16:42.291Z,3.20
2022-11-24T11:22:58.773Z,2.72
2022-11-24T11:26:27.341Z,3.60
2022-11-24T11:36:23.372Z,2.05
2022-11-24T11:39:32.866Z,2.83
2022-11-24T11:46:16.901Z,3.10
2022-11-24T11:49:19.461Z,1.77
2022-11-24T11:52:44.620Z,2.67
2022-11-24T11:55:57.488Z,3.60
2022-11-24T11:59:28.712Z,2.05
2022-11-24T12:02:57.553Z,1.80
2022-11-24T12:06:25.109Z,3.00
2022-11-24T12:10:01.814Z,2.28
2022-11-24T12:13:30.857Z,3.28
2022-11-24T12:19:53.193Z,3.42
2022-11-24T12:23:05.680Z,1.33
2022-11-24T12:26:29.297Z,2.30
2022-11-24T12:29:52.103Z,1.87
2022-11-24T12:33:24.284Z,1.30
2022-11-24T12:36:41.197Z,2.28
2022-11-24T12:39:56.828Z,1.98
2022-11-24T12:43:33.846Z,1.75
2022-11-24T12:46:50.697Z,1.23
2022-11-24T12:50:13.080Z,2.08
2022-11-24T12:53:28.470Z,1.85
2022-11-24T12:56:43.469Z,2.30
2022-11-24T13:00:16.037Z,2.75
2022-11-24T13:03:52.971Z,1.70
2022-11-24T13:07:05.468Z,2.03
2022-11-24T13:10:53.607Z,2.00
2022-11-24T13:14:13.957Z,2.08
2022-11-24T13:17:50.277Z,2.58
2022-11-24T13:20:56.741Z,1.73
2022-11-24T13:24:04.822Z,2.15
2022-11-24T13:27:13.151Z,2.65
2022-11-24T13:30:33.675Z,2.35
2022-11-24T13:33:36.424Z,1.92
2022-11-24T13:36:53.587Z,1.95
2022-11-24T13:39:57.167Z,1.20
2022-11-24T13:43:01.423Z,0.50
2022-11-24T13:46:04.290Z,3.15
2022-11-24T13:49:13.930Z,1.17
2022-11-24T13:52:34.712Z,2.22
2022-11-24T13:55:38.947Z,1.70
2022-11-24T13:59:15.968Z,2.20
2022-11-24T14:02:23.914Z,3.58
2022-11-24T14:05:48.052Z,3.20
2022-11-24T14:08:50.280Z,1.33
2022-11-24T14:12:15.091Z,2.50
2022-11-24T14:15:29.467Z,2.45
2022-11-24T14:18:33.836Z,2.22
2022-11-24T14:21:41.231Z,1.83
2022-11-24T14:24:47.427Z,0.68
2022-11-24T14:27:49.872Z,2.97
2022-11-24T14:31:07.200Z,1.00
2022-11-24T14:34:15.341Z,2.78
2022-11-24T14:37:19.338Z,1.70
2022-11-24T14:40:37.355Z,1.95
2022-11-24T14:46:42.157Z,2.05
2022-11-24T14:49:44.706Z,1.48
2022-11-24T14:52:55.977Z,1.80
2022-11-24T14:56:09.048Z,2.53
2022-11-24T14:59:22.164Z,2.65
2022-11-24T15:02:47.826Z,1.95
2022-11-24T15:05:57.041Z,1.92
2022-11-24T15:08:59.381Z,1.10
2022-11-24T15:12:18.139Z,4.32
2022-11-24T15:15:24.015Z,2.17
2022-11-24T15:18:40.736Z,2.87
2022-11-24T15:21:43.072Z,2.78
2022-11-24T15:24:53.628Z,2.08
2022-11-24T15:27:56.372Z,1.92
2022-11-24T15:31:03.208Z,1.80
2022-11-24T15:34:06.360Z,1.75
2022-11-24T15:37:11.594Z,2.90
2022-11-24T15:40:14.570Z,1.75
2022-11-24T15:43:31.340Z,1.98
2022-11-24T15:46:37.977Z,1.42
2022-11-24T15:49:40.251Z,1.87
2022-11-24T15:52:43.179Z,1.60
2022-11-24T15:55:45.305Z,2.75
2022-11-24T15:58:48.442Z,3.70
2022-11-24T16:01:51.017Z,3.85
2022-11-24T16:04:53.440Z,1.65
2022-11-24T16:07:55.542Z,2.50
2022-11-24T16:10:57.916Z,3.30
2022-11-24T16:13:59.995Z,1.95
2022-11-24T16:17:02.772Z,2.17
2022-11-24T16:20:05.719Z,2.87
2022-11-24T16:23:08.080Z,1.87
2022-11-24T16:26:10.458Z,3.22
2022-11-24T16:29:13.043Z,2.55
2022-11-24T16:32:15.177Z,1.48
2022-11-24T16:35:17.636Z,1.17
2022-11-24T16:38:20.339Z,2.40
2022-11-24T16:41:22.708Z,1.87
2022-11-24T16:44:24.790Z,1.48
2022-11-24T16:47:27.344Z,3.62
2022-11-24T16:50:29.372Z,3.95
